CheckWX is a tool to help pilots better visualize weather data.  It is not intended as a substitute for an official pre-flight weather briefing.

02:16:38 UTC

LCLK METAR
Larnaca International Airport
Larnarca, Cyprus
Current

17 mins ago

LCLK 190200Z VRB02KT 9999 FEW021 25/22 Q1006 NOSIG
Observed
Aug-19 @ 02:00 UTC
Wind
  • Variable at 2 KTS
Visibility
10,000+ meters
Flight Rules
VFR
Cloud Levels
  • Few at 2,100' AGL
Temperature
25°C / 77°F
Dewpoint
22°C / 72°F
Humidity
83%
Altimeter
29.7" Hg
Pressure
1005.92 hPa
Previous

47 mins ago

LCLK 190130Z 31003KT 9999 SCT021 25/22 Q1006 NOSIG
Observed
Aug-19 @ 01:30 UTC
Wind
  • 310° at 3 KTS
Visibility
10,000+ meters
Flight Rules
VFR
Cloud Levels
  • Scattered at 2,100' AGL
Temperature
25°C / 77°F
Dewpoint
22°C / 72°F
Humidity
83%
Altimeter
29.7" Hg
Pressure
1005.92 hPa
Previous

1 hour ago

LCLK 190100Z 32005KT 9999 SCT021 25/22 Q1006 NOSIG
Observed
Aug-19 @ 01:00 UTC
Wind
  • 320° at 5 KTS
Visibility
10,000+ meters
Flight Rules
VFR
Cloud Levels
  • Scattered at 2,100' AGL
Temperature
25°C / 77°F
Dewpoint
22°C / 72°F
Humidity
83%
Altimeter
29.7" Hg
Pressure
1005.92 hPa